sensor_id;sensor_type;location;lat;lon;timestamp;temperature;humidity
38456;DHT22;24237;50.106;20.014;2022-12-26T00:01:24;7.40;99.90
38456;DHT22;24237;50.106;20.014;2022-12-26T00:03:50;7.40;99.90
38456;DHT22;24237;50.106;20.014;2022-12-26T00:06:20;7.60;99.90
38456;DHT22;24237;50.106;20.014;2022-12-26T00:08:46;7.50;99.90
38456;DHT22;24237;50.106;20.014;2022-12-26T00:11:12;7.50;99.90
38456;DHT22;24237;50.106;20.014;2022-12-26T00:13:39;7.40;99.90
38456;DHT22;24237;50.106;20.014;2022-12-26T00:16:18;7.50;99.90
38456;DHT22;24237;50.106;20.014;2022-12-26T00:18:45;7.50;99.90
38456;DHT22;24237;50.106;20.014;2022-12-26T00:21:13;7.60;99.90
38456;DHT22;24237;50.106;20.014;2022-12-26T00:23:39;7.70;99.90
38456;DHT22;24237;50.106;20.014;2022-12-26T00:26:07;7.60;99.90
38456;DHT22;24237;50.106;20.014;2022-12-26T00:28:33;7.50;99.90
38456;DHT22;24237;50.106;20.014;2022-12-26T00:31:04;7.50;99.90
38456;DHT22;24237;50.106;20.014;2022-12-26T00:33:30;7.40;99.90
38456;DHT22;24237;50.106;20.014;2022-12-26T00:36:00;7.30;99.90
38456;DHT22;24237;50.106;20.014;2022-12-26T00:38:26;7.20;99.90
38456;DHT22;24237;50.106;20.014;2022-12-26T00:40:52;7.30;99.90
38456;DHT22;24237;50.106;20.014;2022-12-26T00:43:18;7.30;99.90
38456;DHT22;24237;50.106;20.014;2022-12-26T00:45:44;7.50;99.90
38456;DHT22;24237;50.106;20.014;2022-12-26T00:48:11;7.50;99.90
38456;DHT22;24237;50.106;20.014;2022-12-26T00:50:37;7.40;99.90
38456;DHT22;24237;50.106;20.014;2022-12-26T00:53:02;7.20;99.90
38456;DHT22;24237;50.106;20.014;2022-12-26T00:55:28;7.10;99.90
38456;DHT22;24237;50.106;20.014;2022-12-26T00:57:54;7.00;99.90
38456;DHT22;24237;50.106;20.014;2022-12-26T01:00:19;6.90;99.90
38456;DHT22;24237;50.106;20.014;2022-12-26T01:02:45;7.00;99.90
38456;DHT22;24237;50.106;20.014;2022-12-26T01:05:11;7.20;99.90
38456;DHT22;24237;50.106;20.014;2022-12-26T01:07:37;7.40;99.90
38456;DHT22;24237;50.106;20.014;2022-12-26T01:10:04;7.30;99.90
38456;DHT22;24237;50.106;20.014;2022-12-26T01:12:30;7.20;99.90
38456;DHT22;24237;50.106;20.014;2022-12-26T01:14:57;7.40;99.90
38456;DHT22;24237;50.106;20.014;2022-12-26T01:17:24;7.40;99.90
38456;DHT22;24237;50.106;20.014;2022-12-26T01:19:50;7.40;99.90
38456;DHT22;24237;50.106;20.014;2022-12-26T01:22:15;7.50;99.90
38456;DHT22;24237;50.106;20.014;2022-12-26T01:24:41;7.20;99.90
38456;DHT22;24237;50.106;20.014;2022-12-26T01:27:06;7.00;99.90
38456;DHT22;24237;50.106;20.014;2022-12-26T01:29:32;6.90;99.90
38456;DHT22;24237;50.106;20.014;2022-12-26T01:31:57;6.90;99.90
38456;DHT22;24237;50.106;20.014;2022-12-26T01:34:23;7.00;99.90
38456;DHT22;24237;50.106;20.014;2022-12-26T01:36:51;7.20;99.90
38456;DHT22;24237;50.106;20.014;2022-12-26T01:39:17;7.20;99.90
38456;DHT22;24237;50.106;20.014;2022-12-26T01:41:43;7.30;99.90
38456;DHT22;24237;50.106;20.014;2022-12-26T01:47:12;7.70;99.90
38456;DHT22;24237;50.106;20.014;2022-12-26T01:49:43;7.70;99.90
38456;DHT22;24237;50.106;20.014;2022-12-26T01:52:14;7.70;99.90
38456;DHT22;24237;50.106;20.014;2022-12-26T01:54:44;7.60;99.90
38456;DHT22;24237;50.106;20.014;2022-12-26T01:57:17;7.70;99.90
38456;DHT22;24237;50.106;20.014;2022-12-26T01:59:44;7.80;99.90
38456;DHT22;24237;50.106;20.014;2022-12-26T02:02:10;7.70;99.90
38456;DHT22;24237;50.106;20.014;2022-12-26T02:04:40;7.80;99.90
38456;DHT22;24237;50.106;20.014;2022-12-26T02:07:26;7.60;99.90
38456;DHT22;24237;50.106;20.014;2022-12-26T02:09:52;7.50;99.90
38456;DHT22;24237;50.106;20.014;2022-12-26T02:12:28;7.50;99.90
38456;DHT22;24237;50.106;20.014;2022-12-26T02:14:58;7.50;99.90
38456;DHT22;24237;50.106;20.014;2022-12-26T02:17:27;7.80;99.90
38456;DHT22;24237;50.106;20.014;2022-12-26T02:20:18;7.90;99.90
38456;DHT22;24237;50.106;20.014;2022-12-26T02:23:08;7.60;99.90
38456;DHT22;24237;50.106;20.014;2022-12-26T02:29:00;7.90;99.90
38456;DHT22;24237;50.106;20.014;2022-12-26T02:34:16;7.60;99.90
38456;DHT22;24237;50.106;20.014;2022-12-26T02:36:59;7.50;99.90
38456;DHT22;24237;50.106;20.014;2022-12-26T02:39:37;7.50;99.90
38456;DHT22;24237;50.106;20.014;2022-12-26T02:45:20;7.70;99.90
38456;DHT22;24237;50.106;20.014;2022-12-26T02:51:16;7.90;99.90
38456;DHT22;24237;50.106;20.014;2022-12-26T02:57:05;7.80;99.90
38456;DHT22;24237;50.106;20.014;2022-12-26T03:00:12;7.70;99.90
38456;DHT22;24237;50.106;20.014;2022-12-26T03:03:25;8.20;99.90
38456;DHT22;24237;50.106;20.014;2022-12-26T03:09:11;7.80;99.90
38456;DHT22;24237;50.106;20.014;2022-12-26T03:12:01;7.60;99.90
38456;DHT22;24237;50.106;20.014;2022-12-26T03:14:53;7.40;99.90
38456;DHT22;24237;50.106;20.014;2022-12-26T03:17:40;7.20;99.90
38456;DHT22;24237;50.106;20.014;2022-12-26T03:20:25;7.20;99.90
38456;DHT22;24237;50.106;20.014;2022-12-26T03:23:07;7.30;99.90
38456;DHT22;24237;50.106;20.014;2022-12-26T03:28:18;7.30;99.90
38456;DHT22;24237;50.106;20.014;2022-12-26T03:30:44;7.30;99.90
38456;DHT22;24237;50.106;20.014;2022-12-26T03:35:59;7.20;99.90
38456;DHT22;24237;50.106;20.014;2022-12-26T03:38:36;7.20;99.90
38456;DHT22;24237;50.106;20.014;2022-12-26T03:44:05;7.30;99.90
38456;DHT22;24237;50.106;20.014;2022-12-26T03:49:55;7.30;99.90
38456;DHT22;24237;50.106;20.014;2022-12-26T03:52:50;7.20;99.90
38456;DHT22;24237;50.106;20.014;2022-12-26T03:55:42;7.00;99.90
38456;DHT22;24237;50.106;20.014;2022-12-26T03:58:49;6.90;99.90
38456;DHT22;24237;50.106;20.014;2022-12-26T04:01:37;6.80;99.90
38456;DHT22;24237;50.106;20.014;2022-12-26T04:04:24;6.90;99.90
38456;DHT22;24237;50.106;20.014;2022-12-26T04:07:34;6.80;99.90
38456;DHT22;24237;50.106;20.014;2022-12-26T04:10:29;6.80;99.90
38456;DHT22;24237;50.106;20.014;2022-12-26T04:13:49;6.90;99.90
38456;DHT22;24237;50.106;20.014;2022-12-26T04:16:41;6.90;99.90
38456;DHT22;24237;50.106;20.014;2022-12-26T04:22:23;6.80;99.90
38456;DHT22;24237;50.106;20.014;2022-12-26T04:25:25;6.90;99.90
38456;DHT22;24237;50.106;20.014;2022-12-26T04:28:11;6.80;99.90
38456;DHT22;24237;50.106;20.014;2022-12-26T04:31:05;7.00;99.90
38456;DHT22;24237;50.106;20.014;2022-12-26T04:33:57;7.10;99.90
38456;DHT22;24237;50.106;20.014;2022-12-26T04:36:51;7.20;99.90
38456;DHT22;24237;50.106;20.014;2022-12-26T04:39:37;7.20;99.90
38456;DHT22;24237;50.106;20.014;2022-12-26T04:42:24;7.20;99.90
38456;DHT22;24237;50.106;20.014;2022-12-26T04:45:10;7.20;99.90
38456;DHT22;24237;50.106;20.014;2022-12-26T04:47:37;7.20;99.90
38456;DHT22;24237;50.106;20.014;2022-12-26T04:50:23;7.00;99.90
38456;DHT22;24237;50.106;20.014;2022-12-26T04:52:48;6.90;99.90
38456;DHT22;24237;50.106;20.014;2022-12-26T04:55:26;6.80;99.90
38456;DHT22;24237;50.106;20.014;2022-12-26T04:57:52;6.90;99.90
38456;DHT22;24237;50.106;20.014;2022-12-26T05:00:18;6.70;99.90
38456;DHT22;24237;50.106;20.014;2022-12-26T05:02:44;6.60;99.90
38456;DHT22;24237;50.106;20.014;2022-12-26T05:05:31;6.50;99.90
38456;DHT22;24237;50.106;20.014;2022-12-26T05:08:40;6.50;99.90
38456;DHT22;24237;50.106;20.014;2022-12-26T05:11:25;6.50;99.90
38456;DHT22;24237;50.106;20.014;2022-12-26T05:13:53;6.70;99.90
38456;DHT22;24237;50.106;20.014;2022-12-26T05:16:19;7.00;99.90
38456;DHT22;24237;50.106;20.014;2022-12-26T05:19:03;6.90;99.90
38456;DHT22;24237;50.106;20.014;2022-12-26T05:21:48;6.80;99.90
38456;DHT22;24237;50.106;20.014;2022-12-26T05:24:34;7.50;99.90
38456;DHT22;24237;50.106;20.014;2022-12-26T05:27:19;7.20;99.90
38456;DHT22;24237;50.106;20.014;2022-12-26T05:30:23;7.00;99.90
38456;DHT22;24237;50.106;20.014;2022-12-26T05:32:49;6.80;99.90
38456;DHT22;24237;50.106;20.014;2022-12-26T05:35:34;6.60;99.90
38456;DHT22;24237;50.106;20.014;2022-12-26T05:38:01;6.50;99.90
38456;DHT22;24237;50.106;20.014;2022-12-26T05:40:26;6.60;99.90
38456;DHT22;24237;50.106;20.014;2022-12-26T05:42:52;6.60;99.90
38456;DHT22;24237;50.106;20.014;2022-12-26T05:45:19;6.60;99.90
38456;DHT22;24237;50.106;20.014;2022-12-26T05:47:44;6.40;99.90
38456;DHT22;24237;50.106;20.014;2022-12-26T05:50:10;6.40;99.90
38456;DHT22;24237;50.106;20.014;2022-12-26T05:52:35;6.40;99.90
38456;DHT22;24237;50.106;20.014;2022-12-26T05:55:01;6.60;99.90
38456;DHT22;24237;50.106;20.014;2022-12-26T05:57:27;6.40;99.90
38456;DHT22;24237;50.106;20.014;2022-12-26T05:59:52;6.30;99.90
38456;DHT22;24237;50.106;20.014;2022-12-26T06:02:18;6.30;99.90
38456;DHT22;24237;50.106;20.014;2022-12-26T06:04:44;6.30;99.90
38456;DHT22;24237;50.106;20.014;2022-12-26T06:07:09;6.40;99.90
38456;DHT22;24237;50.106;20.014;2022-12-26T06:09:35;6.40;99.90
38456;DHT22;24237;50.106;20.014;2022-12-26T06:12:00;6.40;99.90
38456;DHT22;24237;50.106;20.014;2022-12-26T06:14:26;6.50;99.90
38456;DHT22;24237;50.106;20.014;2022-12-26T06:16:52;6.50;99.90
38456;DHT22;24237;50.106;20.014;2022-12-26T06:19:17;6.50;99.90
38456;DHT22;24237;50.106;20.014;2022-12-26T06:21:43;6.60;99.90
38456;DHT22;24237;50.106;20.014;2022-12-26T06:24:09;6.70;99.90
38456;DHT22;24237;50.106;20.014;2022-12-26T06:26:34;6.70;99.90
38456;DHT22;24237;50.106;20.014;2022-12-26T06:29:00;6.60;99.90
38456;DHT22;24237;50.106;20.014;2022-12-26T06:31:26;6.60;99.90
38456;DHT22;24237;50.106;20.014;2022-12-26T06:33:54;6.90;99.90
38456;DHT22;24237;50.106;20.014;2022-12-26T06:36:23;7.00;99.90
38456;DHT22;24237;50.106;20.014;2022-12-26T06:38:49;7.00;99.90
38456;DHT22;24237;50.106;20.014;2022-12-26T06:41:17;7.00;99.90
38456;DHT22;24237;50.106;20.014;2022-12-26T06:43:43;7.00;99.90
38456;DHT22;24237;50.106;20.014;2022-12-26T06:46:11;7.00;99.90
38456;DHT22;24237;50.106;20.014;2022-12-26T06:48:37;7.00;99.90
38456;DHT22;24237;50.106;20.014;2022-12-26T06:51:12;7.20;99.90
38456;DHT22;24237;50.106;20.014;2022-12-26T06:53:38;7.40;99.90
38456;DHT22;24237;50.106;20.014;2022-12-26T06:56:15;7.50;99.90
38456;DHT22;24237;50.106;20.014;2022-12-26T06:58:41;7.60;99.90
38456;DHT22;24237;50.106;20.014;2022-12-26T07:01:17;7.80;99.90
38456;DHT22;24237;50.106;20.014;2022-12-26T07:03:43;8.00;99.90
38456;DHT22;24237;50.106;20.014;2022-12-26T07:08:47;8.40;99.90
38456;DHT22;24237;50.106;20.014;2022-12-26T07:11:15;8.50;99.90
38456;DHT22;24237;50.106;20.014;2022-12-26T07:13:41;8.50;99.90
38456;DHT22;24237;50.106;20.014;2022-12-26T07:16:08;8.70;99.90
38456;DHT22;24237;50.106;20.014;2022-12-26T07:18:34;8.80;99.90
38456;DHT22;24237;50.106;20.014;2022-12-26T07:21:02;8.90;99.90
38456;DHT22;24237;50.106;20.014;2022-12-26T07:23:28;9.20;99.90
38456;DHT22;24237;50.106;20.014;2022-12-26T07:25:55;9.30;99.90
38456;DHT22;24237;50.106;20.014;2022-12-26T07:28:24;9.20;99.90
38456;DHT22;24237;50.106;20.014;2022-12-26T07:30:50;9.30;99.90
38456;DHT22;24237;50.106;20.014;2022-12-26T07:33:16;9.50;99.90
38456;DHT22;24237;50.106;20.014;2022-12-26T07:35:41;9.50;99.90
38456;DHT22;24237;50.106;20.014;2022-12-26T07:38:07;9.60;99.90
38456;DHT22;24237;50.106;20.014;2022-12-26T07:40:33;9.50;99.90
38456;DHT22;24237;50.106;20.014;2022-12-26T07:42:58;9.60;99.90
38456;DHT22;24237;50.106;20.014;2022-12-26T07:45:24;9.50;99.90
38456;DHT22;24237;50.106;20.014;2022-12-26T07:47:56;9.30;99.90
38456;DHT22;24237;50.106;20.014;2022-12-26T07:50:26;9.30;99.90
38456;DHT22;24237;50.106;20.014;2022-12-26T07:52:52;9.30;99.90
38456;DHT22;24237;50.106;20.014;2022-12-26T07:55:18;9.30;99.90
38456;DHT22;24237;50.106;20.014;2022-12-26T07:57:49;9.20;99.90
38456;DHT22;24237;50.106;20.014;2022-12-26T08:00:14;9.10;99.90
38456;DHT22;24237;50.106;20.014;2022-12-26T08:02:43;9.10;99.90
38456;DHT22;24237;50.106;20.014;2022-12-26T08:05:09;8.80;99.90
38456;DHT22;24237;50.106;20.014;2022-12-26T08:07:35;8.80;99.90
38456;DHT22;24237;50.106;20.014;2022-12-26T08:10:00;8.70;99.90
38456;DHT22;24237;50.106;20.014;2022-12-26T08:12:26;8.70;99.90
38456;DHT22;24237;50.106;20.014;2022-12-26T08:14:51;8.60;99.90
38456;DHT22;24237;50.106;20.014;2022-12-26T08:17:17;8.50;99.90
38456;DHT22;24237;50.106;20.014;2022-12-26T08:19:43;8.60;99.90
38456;DHT22;24237;50.106;20.014;2022-12-26T08:22:12;8.50;99.90
38456;DHT22;24237;50.106;20.014;2022-12-26T08:24:37;8.50;99.90
38456;DHT22;24237;50.106;20.014;2022-12-26T08:27:03;8.40;99.90
38456;DHT22;24237;50.106;20.014;2022-12-26T08:29:29;8.50;99.90
38456;DHT22;24237;50.106;20.014;2022-12-26T08:31:55;8.50;99.90
38456;DHT22;24237;50.106;20.014;2022-12-26T08:34:23;8.60;99.90
38456;DHT22;24237;50.106;20.014;2022-12-26T08:36:52;8.70;99.90
38456;DHT22;24237;50.106;20.014;2022-12-26T08:39:20;8.60;99.90
38456;DHT22;24237;50.106;20.014;2022-12-26T08:41:46;8.70;99.90
38456;DHT22;24237;50.106;20.014;2022-12-26T08:44:11;8.80;99.90
38456;DHT22;24237;50.106;20.014;2022-12-26T08:46:39;8.80;99.90
38456;DHT22;24237;50.106;20.014;2022-12-26T08:49:07;8.80;99.90
38456;DHT22;24237;50.106;20.014;2022-12-26T08:51:33;8.80;99.90
38456;DHT22;24237;50.106;20.014;2022-12-26T08:54:01;8.80;99.90
38456;DHT22;24237;50.106;20.014;2022-12-26T08:56:27;8.90;99.90
38456;DHT22;24237;50.106;20.014;2022-12-26T08:58:53;8.90;99.90
38456;DHT22;24237;50.106;20.014;2022-12-26T09:01:23;9.00;99.90
38456;DHT22;24237;50.106;20.014;2022-12-26T09:03:59;9.20;99.90
38456;DHT22;24237;50.106;20.014;2022-12-26T09:06:30;9.10;99.90
38456;DHT22;24237;50.106;20.014;2022-12-26T09:09:00;9.30;99.90
38456;DHT22;24237;50.106;20.014;2022-12-26T09:11:26;9.30;99.90
38456;DHT22;24237;50.106;20.014;2022-12-26T09:13:55;9.40;99.90
38456;DHT22;24237;50.106;20.014;2022-12-26T09:16:24;9.50;99.90
38456;DHT22;24237;50.106;20.014;2022-12-26T09:18:56;9.70;99.90
38456;DHT22;24237;50.106;20.014;2022-12-26T09:21:31;9.80;99.90
38456;DHT22;24237;50.106;20.014;2022-12-26T09:23:59;10.20;99.90
38456;DHT22;24237;50.106;20.014;2022-12-26T09:26:29;10.20;99.90
38456;DHT22;24237;50.106;20.014;2022-12-26T09:28:55;10.20;99.90
38456;DHT22;24237;50.106;20.014;2022-12-26T09:31:32;10.40;99.90
38456;DHT22;24237;50.106;20.014;2022-12-26T09:34:00;10.50;99.90
38456;DHT22;24237;50.106;20.014;2022-12-26T09:36:30;10.60;99.90
38456;DHT22;24237;50.106;20.014;2022-12-26T09:38:57;10.90;99.90
38456;DHT22;24237;50.106;20.014;2022-12-26T09:41:53;10.90;99.90
38456;DHT22;24237;50.106;20.014;2022-12-26T09:58:31;11.50;99.90
38456;DHT22;24237;50.106;20.014;2022-12-26T10:01:14;11.60;99.90
38456;DHT22;24237;50.106;20.014;2022-12-26T10:03:51;11.60;99.90
38456;DHT22;24237;50.106;20.014;2022-12-26T10:20:04;11.70;99.90
38456;DHT22;24237;50.106;20.014;2022-12-26T10:25:35;11.20;99.90
38456;DHT22;24237;50.106;20.014;2022-12-26T10:28:05;11.10;99.90
38456;DHT22;24237;50.106;20.014;2022-12-26T10:30:38;11.20;99.90
38456;DHT22;24237;50.106;20.014;2022-12-26T10:33:13;11.30;99.90
38456;DHT22;24237;50.106;20.014;2022-12-26T10:35:43;11.50;99.90
38456;DHT22;24237;50.106;20.014;2022-12-26T10:38:22;11.40;99.90
38456;DHT22;24237;50.106;20.014;2022-12-26T10:40:55;11.40;99.90
38456;DHT22;24237;50.106;20.014;2022-12-26T10:43:33;11.50;99.90
38456;DHT22;24237;50.106;20.014;2022-12-26T10:48:43;11.40;99.90
38456;DHT22;24237;50.106;20.014;2022-12-26T10:51:09;11.30;99.90
38456;DHT22;24237;50.106;20.014;2022-12-26T10:53:41;11.30;99.90
38456;DHT22;24237;50.106;20.014;2022-12-26T10:56:10;11.60;99.90
38456;DHT22;24237;50.106;20.014;2022-12-26T10:58:37;11.70;99.90
38456;DHT22;24237;50.106;20.014;2022-12-26T11:01:30;11.80;99.90
38456;DHT22;24237;50.106;20.014;2022-12-26T11:04:05;11.90;99.90
38456;DHT22;24237;50.106;20.014;2022-12-26T11:06:41;12.00;99.90
38456;DHT22;24237;50.106;20.014;2022-12-26T11:09:33;12.10;99.90
38456;DHT22;24237;50.106;20.014;2022-12-26T11:12:03;12.20;99.90
38456;DHT22;24237;50.106;20.014;2022-12-26T11:17:10;12.40;99.90
38456;DHT22;24237;50.106;20.014;2022-12-26T11:19:40;12.50;99.90
38456;DHT22;24237;50.106;20.014;2022-12-26T11:22:24;12.80;99.90
38456;DHT22;24237;50.106;20.014;2022-12-26T11:27:49;13.90;99.90
38456;DHT22;24237;50.106;20.014;2022-12-26T11:30:21;13.70;99.90
38456;DHT22;24237;50.106;20.014;2022-12-26T11:32:50;13.60;99.90
38456;DHT22;24237;50.106;20.014;2022-12-26T11:35:26;13.20;99.90
38456;DHT22;24237;50.106;20.014;2022-12-26T11:37:59;13.30;99.90
38456;DHT22;24237;50.106;20.014;2022-12-26T11:40:34;14.10;99.90
38456;DHT22;24237;50.106;20.014;2022-12-26T11:43:17;14.90;99.90
38456;DHT22;24237;50.106;20.014;2022-12-26T11:45:48;16.10;99.90
38456;DHT22;24237;50.106;20.014;2022-12-26T11:48:24;17.20;99.90
38456;DHT22;24237;50.106;20.014;2022-12-26T11:50:54;17.40;99.90
38456;DHT22;24237;50.106;20.014;2022-12-26T11:53:23;17.30;99.90
38456;DHT22;24237;50.106;20.014;2022-12-26T11:56:02;17.50;99.90
38456;DHT22;24237;50.106;20.014;2022-12-26T11:58:33;17.40;99.90
38456;DHT22;24237;50.106;20.014;2022-12-26T12:01:04;16.70;99.90
38456;DHT22;24237;50.106;20.014;2022-12-26T12:03:36;16.00;99.90
38456;DHT22;24237;50.106;20.014;2022-12-26T12:11:24;14.70;99.90
38456;DHT22;24237;50.106;20.014;2022-12-26T12:14:17;14.20;99.90
38456;DHT22;24237;50.106;20.014;2022-12-26T12:19:42;14.10;99.90
38456;DHT22;24237;50.106;20.014;2022-12-26T12:41:47;13.60;99.90
38456;DHT22;24237;50.106;20.014;2022-12-26T13:01:29;13.30;99.90
38456;DHT22;24237;50.106;20.014;2022-12-26T13:04:17;13.40;99.90
38456;DHT22;24237;50.106;20.014;2022-12-26T13:07:19;13.70;99.90
38456;DHT22;24237;50.106;20.014;2022-12-26T13:09:50;13.70;99.90
38456;DHT22;24237;50.106;20.014;2022-12-26T13:12:20;13.70;99.90
38456;DHT22;24237;50.106;20.014;2022-12-26T13:14:55;13.60;99.90
38456;DHT22;24237;50.106;20.014;2022-12-26T13:17:48;13.50;99.90
38456;DHT22;24237;50.106;20.014;2022-12-26T13:22:52;13.70;99.90
38456;DHT22;24237;50.106;20.014;2022-12-26T13:25:47;13.70;99.90
38456;DHT22;24237;50.106;20.014;2022-12-26T13:28:23;13.80;99.90
38456;DHT22;24237;50.106;20.014;2022-12-26T13:30:54;13.80;99.90
38456;DHT22;24237;50.106;20.014;2022-12-26T13:33:20;13.80;99.90
38456;DHT22;24237;50.106;20.014;2022-12-26T13:35:57;13.50;99.90
38456;DHT22;24237;50.106;20.014;2022-12-26T13:41:23;14.80;99.90
38456;DHT22;24237;50.106;20.014;2022-12-26T13:49:43;14.00;99.90
38456;DHT22;24237;50.106;20.014;2022-12-26T13:52:31;13.80;99.90
38456;DHT22;24237;50.106;20.014;2022-12-26T13:57:38;13.20;99.90
38456;DHT22;24237;50.106;20.014;2022-12-26T14:09:35;13.20;99.90
38456;DHT22;24237;50.106;20.014;2022-12-26T14:14:55;13.20;99.90
38456;DHT22;24237;50.106;20.014;2022-12-26T14:20:32;13.20;99.90
38456;DHT22;24237;50.106;20.014;2022-12-26T14:33:47;13.40;99.90
38456;DHT22;24237;50.106;20.014;2022-12-26T14:36:48;13.30;99.90
38456;DHT22;24237;50.106;20.014;2022-12-26T14:39:51;13.00;99.90
38456;DHT22;24237;50.106;20.014;2022-12-26T14:42:21;13.10;99.90
38456;DHT22;24237;50.106;20.014;2022-12-26T14:47:50;13.10;99.90
38456;DHT22;24237;50.106;20.014;2022-12-26T14:53:31;12.90;99.90
38456;DHT22;24237;50.106;20.014;2022-12-26T15:26:48;13.20;99.90
38456;DHT22;24237;50.106;20.014;2022-12-26T15:40:26;13.20;99.90
38456;DHT22;24237;50.106;20.014;2022-12-26T15:46:32;12.70;99.90
38456;DHT22;24237;50.106;20.014;2022-12-26T15:54:57;12.90;99.90
38456;DHT22;24237;50.106;20.014;2022-12-26T16:00:39;13.00;99.90
38456;DHT22;24237;50.106;20.014;2022-12-26T16:03:46;13.00;99.90
38456;DHT22;24237;50.106;20.014;2022-12-26T16:12:00;12.80;99.90
38456;DHT22;24237;50.106;20.014;2022-12-26T16:14:34;12.80;99.90
38456;DHT22;24237;50.106;20.014;2022-12-26T16:17:20;12.80;99.90
38456;DHT22;24237;50.106;20.014;2022-12-26T16:19:52;12.80;99.90
38456;DHT22;24237;50.106;20.014;2022-12-26T16:22:34;12.70;99.90
38456;DHT22;24237;50.106;20.014;2022-12-26T16:25:44;12.70;99.90
38456;DHT22;24237;50.106;20.014;2022-12-26T16:28:24;12.50;99.90
38456;DHT22;24237;50.106;20.014;2022-12-26T16:30:54;12.50;99.90
38456;DHT22;24237;50.106;20.014;2022-12-26T16:33:20;12.50;99.90
38456;DHT22;24237;50.106;20.014;2022-12-26T16:35:50;12.40;99.90
38456;DHT22;24237;50.106;20.014;2022-12-26T16:38:18;12.30;99.90
38456;DHT22;24237;50.106;20.014;2022-12-26T16:40:48;12.30;99.90
38456;DHT22;24237;50.106;20.014;2022-12-26T16:45:55;12.30;99.90
38456;DHT22;24237;50.106;20.014;2022-12-26T16:48:25;12.10;99.90
38456;DHT22;24237;50.106;20.014;2022-12-26T16:50:54;12.10;99.90
38456;DHT22;24237;50.106;20.014;2022-12-26T16:53:41;12.20;99.90
38456;DHT22;24237;50.106;20.014;2022-12-26T16:58:52;11.90;99.90
38456;DHT22;24237;50.106;20.014;2022-12-26T17:01:20;11.90;99.90
38456;DHT22;24237;50.106;20.014;2022-12-26T17:06:36;12.30;99.90
38456;DHT22;24237;50.106;20.014;2022-12-26T17:09:08;12.40;99.90
38456;DHT22;24237;50.106;20.014;2022-12-26T17:11:38;12.60;99.90
38456;DHT22;24237;50.106;20.014;2022-12-26T17:14:06;12.60;99.90
38456;DHT22;24237;50.106;20.014;2022-12-26T17:16:39;12.60;99.90
38456;DHT22;24237;50.106;20.014;2022-12-26T17:21:33;12.70;99.90
38456;DHT22;24237;50.106;20.014;2022-12-26T17:26:36;12.30;99.90
38456;DHT22;24237;50.106;20.014;2022-12-26T17:29:02;12.10;99.90
38456;DHT22;24237;50.106;20.014;2022-12-26T17:31:40;12.10;99.90
38456;DHT22;24237;50.106;20.014;2022-12-26T17:34:14;11.90;99.90
38456;DHT22;24237;50.106;20.014;2022-12-26T17:36:41;11.50;99.90
38456;DHT22;24237;50.106;20.014;2022-12-26T17:39:11;11.50;99.90
38456;DHT22;24237;50.106;20.014;2022-12-26T17:41:56;11.30;99.90
38456;DHT22;24237;50.106;20.014;2022-12-26T17:44:42;11.20;99.90
38456;DHT22;24237;50.106;20.014;2022-12-26T17:47:28;11.30;99.90
38456;DHT22;24237;50.106;20.014;2022-12-26T17:49:57;11.40;99.90
38456;DHT22;24237;50.106;20.014;2022-12-26T17:52:26;11.30;99.90
38456;DHT22;24237;50.106;20.014;2022-12-26T17:54:52;11.50;99.90
38456;DHT22;24237;50.106;20.014;2022-12-26T17:57:20;11.50;99.90
38456;DHT22;24237;50.106;20.014;2022-12-26T17:59:47;11.70;99.90
38456;DHT22;24237;50.106;20.014;2022-12-26T18:02:13;11.60;99.90
38456;DHT22;24237;50.106;20.014;2022-12-26T18:04:38;11.50;99.90
38456;DHT22;24237;50.106;20.014;2022-12-26T18:07:04;11.50;99.90
38456;DHT22;24237;50.106;20.014;2022-12-26T18:09:30;11.60;99.90
38456;DHT22;24237;50.106;20.014;2022-12-26T18:11:56;11.80;99.90
38456;DHT22;24237;50.106;20.014;2022-12-26T18:14:22;11.80;99.90
38456;DHT22;24237;50.106;20.014;2022-12-26T18:16:51;11.50;99.90
38456;DHT22;24237;50.106;20.014;2022-12-26T18:19:18;11.50;99.90
38456;DHT22;24237;50.106;20.014;2022-12-26T18:21:44;11.40;99.90
38456;DHT22;24237;50.106;20.014;2022-12-26T18:24:10;11.60;99.90
38456;DHT22;24237;50.106;20.014;2022-12-26T18:26:38;11.70;99.90
38456;DHT22;24237;50.106;20.014;2022-12-26T18:29:04;11.80;99.90
38456;DHT22;24237;50.106;20.014;2022-12-26T18:31:32;11.90;99.90
38456;DHT22;24237;50.106;20.014;2022-12-26T18:33:58;11.80;99.90
38456;DHT22;24237;50.106;20.014;2022-12-26T18:36:29;11.60;99.90
38456;DHT22;24237;50.106;20.014;2022-12-26T18:38:59;11.60;99.90
38456;DHT22;24237;50.106;20.014;2022-12-26T18:41:26;11.70;99.90
38456;DHT22;24237;50.106;20.014;2022-12-26T18:43:52;11.60;99.90
38456;DHT22;24237;50.106;20.014;2022-12-26T18:46:19;11.30;99.90
38456;DHT22;24237;50.106;20.014;2022-12-26T18:48:47;11.50;99.90
38456;DHT22;24237;50.106;20.014;2022-12-26T18:51:13;11.40;99.90
38456;DHT22;24237;50.106;20.014;2022-12-26T18:53:42;11.30;99.90
38456;DHT22;24237;50.106;20.014;2022-12-26T18:56:13;11.40;99.90
38456;DHT22;24237;50.106;20.014;2022-12-26T18:58:49;11.60;99.90
38456;DHT22;24237;50.106;20.014;2022-12-26T19:01:16;11.50;99.90
38456;DHT22;24237;50.106;20.014;2022-12-26T19:03:43;11.50;99.90
38456;DHT22;24237;50.106;20.014;2022-12-26T19:06:13;11.40;99.90
38456;DHT22;24237;50.106;20.014;2022-12-26T19:08:40;11.20;99.90
38456;DHT22;24237;50.106;20.014;2022-12-26T19:11:06;11.30;99.90
38456;DHT22;24237;50.106;20.014;2022-12-26T19:13:31;11.10;99.90
38456;DHT22;24237;50.106;20.014;2022-12-26T19:15:59;11.30;99.90
38456;DHT22;24237;50.106;20.014;2022-12-26T19:18:24;11.20;99.90
38456;DHT22;24237;50.106;20.014;2022-12-26T19:20:50;11.20;99.90
38456;DHT22;24237;50.106;20.014;2022-12-26T19:23:15;11.40;99.90
38456;DHT22;24237;50.106;20.014;2022-12-26T19:25:41;11.40;99.90
38456;DHT22;24237;50.106;20.014;2022-12-26T19:28:06;11.20;99.90
38456;DHT22;24237;50.106;20.014;2022-12-26T19:30:32;11.20;99.90
38456;DHT22;24237;50.106;20.014;2022-12-26T19:32:58;11.30;99.90
38456;DHT22;24237;50.106;20.014;2022-12-26T19:35:23;11.60;99.90
38456;DHT22;24237;50.106;20.014;2022-12-26T19:37:49;11.60;99.90
38456;DHT22;24237;50.106;20.014;2022-12-26T19:40:17;11.70;99.90
38456;DHT22;24237;50.106;20.014;2022-12-26T19:42:46;11.70;99.90
38456;DHT22;24237;50.106;20.014;2022-12-26T19:45:14;11.60;99.90
38456;DHT22;24237;50.106;20.014;2022-12-26T19:47:40;11.60;99.90
38456;DHT22;24237;50.106;20.014;2022-12-26T19:50:07;11.60;99.90
38456;DHT22;24237;50.106;20.014;2022-12-26T19:52:33;11.60;99.90
38456;DHT22;24237;50.106;20.014;2022-12-26T19:55:05;11.50;99.90
38456;DHT22;24237;50.106;20.014;2022-12-26T19:57:31;11.50;99.90
38456;DHT22;24237;50.106;20.014;2022-12-26T19:59:56;11.60;99.90